sensor_id;sensor_type;location;lat;lon;timestamp;temperature;humidity
66610;DHT22;53468;48.276;14.416;2023-02-27T00:01:22;1.30;99.90
66610;DHT22;53468;48.276;14.416;2023-02-27T00:06:24;1.40;99.90
66610;DHT22;53468;48.276;14.416;2023-02-27T00:11:26;1.30;99.90
66610;DHT22;53468;48.276;14.416;2023-02-27T00:16:31;1.30;99.90
66610;DHT22;53468;48.276;14.416;2023-02-27T00:21:34;1.30;99.90
66610;DHT22;53468;48.276;14.416;2023-02-27T00:26:36;1.40;99.90
66610;DHT22;53468;48.276;14.416;2023-02-27T00:31:39;1.30;99.90
66610;DHT22;53468;48.276;14.416;2023-02-27T00:36:41;1.30;99.90
66610;DHT22;53468;48.276;14.416;2023-02-27T00:41:43;1.30;99.90
66610;DHT22;53468;48.276;14.416;2023-02-27T00:46:47;1.40;99.90
66610;DHT22;53468;48.276;14.416;2023-02-27T00:51:49;1.30;99.90
66610;DHT22;53468;48.276;14.416;2023-02-27T00:56:51;1.40;99.90
66610;DHT22;53468;48.276;14.416;2023-02-27T01:01:55;1.30;99.90
66610;DHT22;53468;48.276;14.416;2023-02-27T01:06:57;1.30;99.90
66610;DHT22;53468;48.276;14.416;2023-02-27T01:11:59;1.40;99.90
66610;DHT22;53468;48.276;14.416;2023-02-27T01:17:03;1.30;99.90
66610;DHT22;53468;48.276;14.416;2023-02-27T01:22:05;1.30;99.90
66610;DHT22;53468;48.276;14.416;2023-02-27T01:27:07;1.40;99.90
66610;DHT22;53468;48.276;14.416;2023-02-27T01:32:10;1.40;99.90
66610;DHT22;53468;48.276;14.416;2023-02-27T01:37:12;1.30;99.90
66610;DHT22;53468;48.276;14.416;2023-02-27T01:42:19;1.40;99.90
66610;DHT22;53468;48.276;14.416;2023-02-27T01:47:23;1.40;99.90
66610;DHT22;53468;48.276;14.416;2023-02-27T01:52:26;1.40;99.90
66610;DHT22;53468;48.276;14.416;2023-02-27T01:57:30;1.30;99.90
66610;DHT22;53468;48.276;14.416;2023-02-27T02:02:36;1.40;99.90
66610;DHT22;53468;48.276;14.416;2023-02-27T02:07:41;1.40;99.90
66610;DHT22;53468;48.276;14.416;2023-02-27T02:12:44;1.40;99.90
66610;DHT22;53468;48.276;14.416;2023-02-27T02:17:55;1.40;99.90
66610;DHT22;53468;48.276;14.416;2023-02-27T02:34:53;1.40;99.90
66610;DHT22;53468;48.276;14.416;2023-02-27T02:40:15;1.40;99.90
66610;DHT22;53468;48.276;14.416;2023-02-27T02:45:25;1.40;99.90
66610;DHT22;53468;48.276;14.416;2023-02-27T02:50:30;1.40;99.90
66610;DHT22;53468;48.276;14.416;2023-02-27T02:55:37;1.40;99.90
66610;DHT22;53468;48.276;14.416;2023-02-27T03:00:45;1.40;99.90
66610;DHT22;53468;48.276;14.416;2023-02-27T03:05:55;1.40;99.90
66610;DHT22;53468;48.276;14.416;2023-02-27T03:11:01;1.50;99.90
66610;DHT22;53468;48.276;14.416;2023-02-27T03:16:09;1.40;99.90
66610;DHT22;53468;48.276;14.416;2023-02-27T03:21:19;1.40;99.90
66610;DHT22;53468;48.276;14.416;2023-02-27T03:26:28;1.30;99.90
66610;DHT22;53468;48.276;14.416;2023-02-27T03:31:35;1.40;99.90
66610;DHT22;53468;48.276;14.416;2023-02-27T03:36:45;1.30;99.90
66610;DHT22;53468;48.276;14.416;2023-02-27T03:41:52;1.30;99.90
66610;DHT22;53468;48.276;14.416;2023-02-27T03:46:55;1.20;99.90
66610;DHT22;53468;48.276;14.416;2023-02-27T03:51:58;1.30;99.90
66610;DHT22;53468;48.276;14.416;2023-02-27T03:57:02;1.40;99.90
66610;DHT22;53468;48.276;14.416;2023-02-27T04:02:05;1.20;99.90
66610;DHT22;53468;48.276;14.416;2023-02-27T04:07:14;1.30;99.90
66610;DHT22;53468;48.276;14.416;2023-02-27T04:12:41;1.30;99.90
66610;DHT22;53468;48.276;14.416;2023-02-27T04:17:54;1.30;99.90
66610;DHT22;53468;48.276;14.416;2023-02-27T04:23:01;1.30;99.90
66610;DHT22;53468;48.276;14.416;2023-02-27T04:28:12;1.40;99.90
66610;DHT22;53468;48.276;14.416;2023-02-27T04:33:25;1.40;99.90
66610;DHT22;53468;48.276;14.416;2023-02-27T04:38:32;1.30;99.90
66610;DHT22;53468;48.276;14.416;2023-02-27T04:43:38;1.30;99.90
66610;DHT22;53468;48.276;14.416;2023-02-27T04:48:47;1.20;99.90
66610;DHT22;53468;48.276;14.416;2023-02-27T04:53:55;1.30;99.90
66610;DHT22;53468;48.276;14.416;2023-02-27T04:59:04;1.20;99.90
66610;DHT22;53468;48.276;14.416;2023-02-27T05:04:09;1.20;99.90
66610;DHT22;53468;48.276;14.416;2023-02-27T05:09:17;1.30;99.90
66610;DHT22;53468;48.276;14.416;2023-02-27T05:14:26;1.20;99.90
66610;DHT22;53468;48.276;14.416;2023-02-27T05:19:30;1.20;99.90
66610;DHT22;53468;48.276;14.416;2023-02-27T05:24:37;1.20;99.90
66610;DHT22;53468;48.276;14.416;2023-02-27T05:29:48;1.10;99.90
66610;DHT22;53468;48.276;14.416;2023-02-27T05:34:53;1.10;99.90
66610;DHT22;53468;48.276;14.416;2023-02-27T05:39:57;1.10;99.90
66610;DHT22;53468;48.276;14.416;2023-02-27T05:45:04;1.00;99.90
66610;DHT22;53468;48.276;14.416;2023-02-27T05:50:10;1.00;99.90
66610;DHT22;53468;48.276;14.416;2023-02-27T05:55:17;0.90;99.90
66610;DHT22;53468;48.276;14.416;2023-02-27T06:00:26;0.90;99.90
66610;DHT22;53468;48.276;14.416;2023-02-27T06:05:31;0.80;99.90
66610;DHT22;53468;48.276;14.416;2023-02-27T06:10:33;0.80;99.90
66610;DHT22;53468;48.276;14.416;2023-02-27T06:15:36;0.80;99.90
66610;DHT22;53468;48.276;14.416;2023-02-27T06:20:39;0.80;99.90
66610;DHT22;53468;48.276;14.416;2023-02-27T06:25:41;0.80;99.90
66610;DHT22;53468;48.276;14.416;2023-02-27T06:30:44;0.90;99.90
66610;DHT22;53468;48.276;14.416;2023-02-27T06:35:47;0.90;99.90
66610;DHT22;53468;48.276;14.416;2023-02-27T06:40:50;0.90;99.90
66610;DHT22;53468;48.276;14.416;2023-02-27T06:45:54;1.00;99.90
66610;DHT22;53468;48.276;14.416;2023-02-27T06:50:56;1.10;99.90
66610;DHT22;53468;48.276;14.416;2023-02-27T06:55:59;1.20;99.90
66610;DHT22;53468;48.276;14.416;2023-02-27T07:01:03;1.30;99.90
66610;DHT22;53468;48.276;14.416;2023-02-27T07:06:07;1.40;99.90
66610;DHT22;53468;48.276;14.416;2023-02-27T07:11:09;1.60;99.90
66610;DHT22;53468;48.276;14.416;2023-02-27T07:16:13;1.70;99.90
66610;DHT22;53468;48.276;14.416;2023-02-27T07:21:15;1.90;99.90
66610;DHT22;53468;48.276;14.416;2023-02-27T07:26:17;1.90;99.90
66610;DHT22;53468;48.276;14.416;2023-02-27T07:31:20;2.10;99.90
66610;DHT22;53468;48.276;14.416;2023-02-27T07:36:22;2.30;99.90
66610;DHT22;53468;48.276;14.416;2023-02-27T07:41:25;2.50;99.90
66610;DHT22;53468;48.276;14.416;2023-02-27T07:46:29;2.60;99.90
66610;DHT22;53468;48.276;14.416;2023-02-27T07:51:31;2.70;99.90
66610;DHT22;53468;48.276;14.416;2023-02-27T07:56:32;2.70;99.90
66610;DHT22;53468;48.276;14.416;2023-02-27T08:01:36;2.70;99.90
66610;DHT22;53468;48.276;14.416;2023-02-27T08:06:39;2.60;99.90
66610;DHT22;53468;48.276;14.416;2023-02-27T08:11:41;2.80;99.90
66610;DHT22;53468;48.276;14.416;2023-02-27T08:16:45;2.90;99.90
66610;DHT22;53468;48.276;14.416;2023-02-27T08:21:47;2.90;99.90
66610;DHT22;53468;48.276;14.416;2023-02-27T08:26:49;3.00;99.90
66610;DHT22;53468;48.276;14.416;2023-02-27T08:31:53;3.20;99.90
66610;DHT22;53468;48.276;14.416;2023-02-27T08:36:55;3.50;99.90
66610;DHT22;53468;48.276;14.416;2023-02-27T08:41:57;3.70;99.90
66610;DHT22;53468;48.276;14.416;2023-02-27T08:47:01;3.80;99.90
66610;DHT22;53468;48.276;14.416;2023-02-27T08:52:03;4.20;99.90
66610;DHT22;53468;48.276;14.416;2023-02-27T08:57:05;4.50;99.90
66610;DHT22;53468;48.276;14.416;2023-02-27T09:02:10;4.40;99.90
66610;DHT22;53468;48.276;14.416;2023-02-27T09:07:12;4.40;99.90
66610;DHT22;53468;48.276;14.416;2023-02-27T09:12:14;4.50;99.90
66610;DHT22;53468;48.276;14.416;2023-02-27T09:17:18;4.40;99.90
66610;DHT22;53468;48.276;14.416;2023-02-27T09:22:20;4.60;99.90
66610;DHT22;53468;48.276;14.416;2023-02-27T09:27:22;4.60;99.50
66610;DHT22;53468;48.276;14.416;2023-02-27T09:32:27;4.60;99.50
66610;DHT22;53468;48.276;14.416;2023-02-27T09:37:29;4.20;98.50
66610;DHT22;53468;48.276;14.416;2023-02-27T09:42:36;4.00;99.00
66610;DHT22;53468;48.276;14.416;2023-02-27T09:47:48;4.20;98.90
66610;DHT22;53468;48.276;14.416;2023-02-27T09:52:53;4.10;98.90
66610;DHT22;53468;48.276;14.416;2023-02-27T09:58:03;3.90;97.30
66610;DHT22;53468;48.276;14.416;2023-02-27T10:03:18;3.80;99.90
66610;DHT22;53468;48.276;14.416;2023-02-27T10:08:25;3.80;99.20
66610;DHT22;53468;48.276;14.416;2023-02-27T10:13:38;3.80;99.90
66610;DHT22;53468;48.276;14.416;2023-02-27T10:18:50;3.80;99.20
66610;DHT22;53468;48.276;14.416;2023-02-27T10:23:58;3.70;99.90
66610;DHT22;53468;48.276;14.416;2023-02-27T10:29:14;3.80;99.90
66610;DHT22;53468;48.276;14.416;2023-02-27T10:34:18;3.90;99.90
66610;DHT22;53468;48.276;14.416;2023-02-27T10:39:22;4.20;99.90
66610;DHT22;53468;48.276;14.416;2023-02-27T10:44:25;4.10;99.00
66610;DHT22;53468;48.276;14.416;2023-02-27T10:49:31;4.10;98.00
66610;DHT22;53468;48.276;14.416;2023-02-27T10:54:34;4.00;96.40
66610;DHT22;53468;48.276;14.416;2023-02-27T10:59:38;3.90;94.70
66610;DHT22;53468;48.276;14.416;2023-02-27T11:04:48;4.20;94.70
66610;DHT22;53468;48.276;14.416;2023-02-27T11:09:59;4.00;91.00
66610;DHT22;53468;48.276;14.416;2023-02-27T11:15:20;4.40;95.70
66610;DHT22;53468;48.276;14.416;2023-02-27T11:20:36;4.40;97.20
66610;DHT22;53468;48.276;14.416;2023-02-27T11:25:43;4.30;97.20
66610;DHT22;53468;48.276;14.416;2023-02-27T11:30:55;4.60;96.70
66610;DHT22;53468;48.276;14.416;2023-02-27T11:36:00;4.30;94.70
66610;DHT22;53468;48.276;14.416;2023-02-27T11:41:04;4.50;98.70
66610;DHT22;53468;48.276;14.416;2023-02-27T11:46:10;4.30;95.00
66610;DHT22;53468;48.276;14.416;2023-02-27T11:51:33;4.20;94.50
66610;DHT22;53468;48.276;14.416;2023-02-27T11:56:43;4.40;93.40
66610;DHT22;53468;48.276;14.416;2023-02-27T12:01:50;4.50;94.90
66610;DHT22;53468;48.276;14.416;2023-02-27T12:07:00;4.00;93.40
66610;DHT22;53468;48.276;14.416;2023-02-27T12:12:08;4.10;94.20
66610;DHT22;53468;48.276;14.416;2023-02-27T12:17:20;4.30;97.90
66610;DHT22;53468;48.276;14.416;2023-02-27T12:22:28;4.00;93.20
66610;DHT22;53468;48.276;14.416;2023-02-27T12:27:40;4.10;92.20
66610;DHT22;53468;48.276;14.416;2023-02-27T12:32:47;4.10;90.80
66610;DHT22;53468;48.276;14.416;2023-02-27T12:37:53;4.30;94.40
66610;DHT22;53468;48.276;14.416;2023-02-27T12:43:09;4.10;95.00
66610;DHT22;53468;48.276;14.416;2023-02-27T12:48:20;4.30;97.80
66610;DHT22;53468;48.276;14.416;2023-02-27T12:53:51;4.20;94.70
66610;DHT22;53468;48.276;14.416;2023-02-27T12:59:04;3.90;96.60
66610;DHT22;53468;48.276;14.416;2023-02-27T13:04:17;4.10;99.30
66610;DHT22;53468;48.276;14.416;2023-02-27T13:09:23;4.30;99.40
66610;DHT22;53468;48.276;14.416;2023-02-27T13:14:45;4.10;99.60
66610;DHT22;53468;48.276;14.416;2023-02-27T13:19:50;4.40;98.40
66610;DHT22;53468;48.276;14.416;2023-02-27T13:24:56;4.30;99.90
66610;DHT22;53468;48.276;14.416;2023-02-27T13:30:10;4.30;98.70
66610;DHT22;53468;48.276;14.416;2023-02-27T13:35:20;4.50;98.80
66610;DHT22;53468;48.276;14.416;2023-02-27T13:40:34;4.30;95.50
66610;DHT22;53468;48.276;14.416;2023-02-27T13:45:52;4.20;94.80
66610;DHT22;53468;48.276;14.416;2023-02-27T13:50:54;4.00;96.20
66610;DHT22;53468;48.276;14.416;2023-02-27T13:56:17;4.00;98.60
66610;DHT22;53468;48.276;14.416;2023-02-27T14:01:25;4.00;97.90
66610;DHT22;53468;48.276;14.416;2023-02-27T14:06:28;4.10;98.60
66610;DHT22;53468;48.276;14.416;2023-02-27T14:11:32;4.10;98.60
66610;DHT22;53468;48.276;14.416;2023-02-27T14:16:59;3.80;95.50
66610;DHT22;53468;48.276;14.416;2023-02-27T14:22:42;3.80;98.40
66610;DHT22;53468;48.276;14.416;2023-02-27T14:27:51;3.80;98.20
66610;DHT22;53468;48.276;14.416;2023-02-27T14:32:58;3.60;98.40
66610;DHT22;53468;48.276;14.416;2023-02-27T14:38:07;3.60;99.10
66610;DHT22;53468;48.276;14.416;2023-02-27T14:43:19;3.50;99.90
66610;DHT22;53468;48.276;14.416;2023-02-27T14:48:26;3.60;99.90
66610;DHT22;53468;48.276;14.416;2023-02-27T14:53:29;3.60;99.90
66610;DHT22;53468;48.276;14.416;2023-02-27T14:58:34;3.60;99.40
66610;DHT22;53468;48.276;14.416;2023-02-27T15:03:39;3.60;99.90
66610;DHT22;53468;48.276;14.416;2023-02-27T15:08:46;3.60;99.90
66610;DHT22;53468;48.276;14.416;2023-02-27T15:13:57;3.60;99.90
66610;DHT22;53468;48.276;14.416;2023-02-27T15:19:02;3.40;99.90
66610;DHT22;53468;48.276;14.416;2023-02-27T15:24:06;3.40;99.90
66610;DHT22;53468;48.276;14.416;2023-02-27T15:29:20;3.20;99.90
66610;DHT22;53468;48.276;14.416;2023-02-27T15:34:23;3.10;99.70
66610;DHT22;53468;48.276;14.416;2023-02-27T15:39:27;3.10;99.90
66610;DHT22;53468;48.276;14.416;2023-02-27T15:44:34;3.10;99.90
66610;DHT22;53468;48.276;14.416;2023-02-27T15:49:38;2.90;99.90
66610;DHT22;53468;48.276;14.416;2023-02-27T15:54:46;2.90;99.90
66610;DHT22;53468;48.276;14.416;2023-02-27T15:59:51;2.70;99.90
66610;DHT22;53468;48.276;14.416;2023-02-27T16:04:53;2.70;99.90
66610;DHT22;53468;48.276;14.416;2023-02-27T16:09:59;2.80;99.90
66610;DHT22;53468;48.276;14.416;2023-02-27T16:15:22;2.60;99.90
66610;DHT22;53468;48.276;14.416;2023-02-27T16:20:41;2.50;99.90
66610;DHT22;53468;48.276;14.416;2023-02-27T16:25:59;2.50;99.90
66610;DHT22;53468;48.276;14.416;2023-02-27T16:31:03;2.40;99.90
66610;DHT22;53468;48.276;14.416;2023-02-27T16:36:15;2.30;99.90
66610;DHT22;53468;48.276;14.416;2023-02-27T16:41:20;2.30;99.90
66610;DHT22;53468;48.276;14.416;2023-02-27T16:46:24;2.30;99.90
66610;DHT22;53468;48.276;14.416;2023-02-27T16:51:27;2.20;99.90
66610;DHT22;53468;48.276;14.416;2023-02-27T16:56:29;2.20;99.90
66610;DHT22;53468;48.276;14.416;2023-02-27T17:01:33;2.10;99.90
66610;DHT22;53468;48.276;14.416;2023-02-27T17:06:35;2.10;99.90
66610;DHT22;53468;48.276;14.416;2023-02-27T17:11:37;2.10;99.90
66610;DHT22;53468;48.276;14.416;2023-02-27T17:16:41;2.10;99.90
66610;DHT22;53468;48.276;14.416;2023-02-27T17:21:43;2.00;99.90
66610;DHT22;53468;48.276;14.416;2023-02-27T17:26:45;2.00;99.90
66610;DHT22;53468;48.276;14.416;2023-02-27T17:31:49;2.00;99.90
66610;DHT22;53468;48.276;14.416;2023-02-27T17:36:51;2.00;99.90
66610;DHT22;53468;48.276;14.416;2023-02-27T17:41:53;2.00;99.90
66610;DHT22;53468;48.276;14.416;2023-02-27T17:46:56;2.00;99.90
66610;DHT22;53468;48.276;14.416;2023-02-27T17:51:58;1.90;99.90
66610;DHT22;53468;48.276;14.416;2023-02-27T17:57:01;1.90;99.90
66610;DHT22;53468;48.276;14.416;2023-02-27T18:02:05;1.80;99.90
66610;DHT22;53468;48.276;14.416;2023-02-27T18:07:08;1.80;99.90
66610;DHT22;53468;48.276;14.416;2023-02-27T18:12:10;1.70;99.90
66610;DHT22;53468;48.276;14.416;2023-02-27T18:17:13;1.70;99.90
66610;DHT22;53468;48.276;14.416;2023-02-27T18:22:15;1.70;99.90
66610;DHT22;53468;48.276;14.416;2023-02-27T18:27:17;1.70;99.90
66610;DHT22;53468;48.276;14.416;2023-02-27T18:32:21;1.70;99.90
66610;DHT22;53468;48.276;14.416;2023-02-27T18:37:23;1.70;99.90
66610;DHT22;53468;48.276;14.416;2023-02-27T18:42:25;1.70;99.90
66610;DHT22;53468;48.276;14.416;2023-02-27T18:47:29;1.70;99.90
66610;DHT22;53468;48.276;14.416;2023-02-27T18:52:31;1.60;99.90
66610;DHT22;53468;48.276;14.416;2023-02-27T18:57:33;1.60;99.90
66610;DHT22;53468;48.276;14.416;2023-02-27T19:02:37;1.60;99.90
66610;DHT22;53468;48.276;14.416;2023-02-27T19:07:40;1.60;99.90
66610;DHT22;53468;48.276;14.416;2023-02-27T19:12:43;1.60;99.90
66610;DHT22;53468;48.276;14.416;2023-02-27T19:17:46;1.50;99.90
66610;DHT22;53468;48.276;14.416;2023-02-27T19:22:48;1.60;99.90
66610;DHT22;53468;48.276;14.416;2023-02-27T19:27:52;1.60;99.90
66610;DHT22;53468;48.276;14.416;2023-02-27T19:32:56;1.50;99.90
66610;DHT22;53468;48.276;14.416;2023-02-27T19:37:58;1.50;99.90
66610;DHT22;53468;48.276;14.416;2023-02-27T19:43:00;1.50;99.90
66610;DHT22;53468;48.276;14.416;2023-02-27T19:48:05;1.40;99.90
66610;DHT22;53468;48.276;14.416;2023-02-27T19:53:07;1.40;99.90
66610;DHT22;53468;48.276;14.416;2023-02-27T19:58:09;1.40;99.90
66610;DHT22;53468;48.276;14.416;2023-02-27T20:03:12;1.40;99.90
66610;DHT22;53468;48.276;14.416;2023-02-27T20:08:14;1.40;99.90
66610;DHT22;53468;48.276;14.416;2023-02-27T20:13:17;1.40;99.90
66610;DHT22;53468;48.276;14.416;2023-02-27T20:18:21;1.40;99.90
66610;DHT22;53468;48.276;14.416;2023-02-27T20:23:23;1.30;99.90
66610;DHT22;53468;48.276;14.416;2023-02-27T20:28:25;1.30;99.90
66610;DHT22;53468;48.276;14.416;2023-02-27T20:33:29;1.30;99.90
66610;DHT22;53468;48.276;14.416;2023-02-27T20:38:32;1.30;99.90
66610;DHT22;53468;48.276;14.416;2023-02-27T20:43:39;1.30;99.90
66610;DHT22;53468;48.276;14.416;2023-02-27T20:48:44;1.30;99.90
66610;DHT22;53468;48.276;14.416;2023-02-27T20:53:49;1.20;99.90
66610;DHT22;53468;48.276;14.416;2023-02-27T20:58:51;1.30;99.90
66610;DHT22;53468;48.276;14.416;2023-02-27T21:03:56;1.40;99.90
66610;DHT22;53468;48.276;14.416;2023-02-27T21:09:01;1.30;99.90
66610;DHT22;53468;48.276;14.416;2023-02-27T21:14:05;1.40;99.90
66610;DHT22;53468;48.276;14.416;2023-02-27T21:19:10;1.30;99.90
66610;DHT22;53468;48.276;14.416;2023-02-27T21:24:13;1.30;99.90
66610;DHT22;53468;48.276;14.416;2023-02-27T21:29:17;1.30;99.90
66610;DHT22;53468;48.276;14.416;2023-02-27T21:34:23;1.30;99.90
66610;DHT22;53468;48.276;14.416;2023-02-27T21:39:26;1.30;99.90
66610;DHT22;53468;48.276;14.416;2023-02-27T21:44:28;1.30;99.90
66610;DHT22;53468;48.276;14.416;2023-02-27T21:49:33;1.30;99.90
66610;DHT22;53468;48.276;14.416;2023-02-27T21:54:35;1.30;99.90
66610;DHT22;53468;48.276;14.416;2023-02-27T21:59:37;1.20;99.90
66610;DHT22;53468;48.276;14.416;2023-02-27T22:04:42;1.20;99.90
66610;DHT22;53468;48.276;14.416;2023-02-27T22:09:44;1.20;99.90
66610;DHT22;53468;48.276;14.416;2023-02-27T22:14:49;1.10;99.90
66610;DHT22;53468;48.276;14.416;2023-02-27T22:19:52;1.00;99.90
66610;DHT22;53468;48.276;14.416;2023-02-27T22:24:54;1.00;99.90
66610;DHT22;53468;48.276;14.416;2023-02-27T22:29:56;0.90;99.90
66610;DHT22;53468;48.276;14.416;2023-02-27T22:35:00;0.90;99.90
66610;DHT22;53468;48.276;14.416;2023-02-27T22:40:03;0.80;99.90
66610;DHT22;53468;48.276;14.416;2023-02-27T22:45:06;0.70;99.90
66610;DHT22;53468;48.276;14.416;2023-02-27T22:50:11;0.60;99.90
66610;DHT22;53468;48.276;14.416;2023-02-27T22:55:14;0.50;99.90
66610;DHT22;53468;48.276;14.416;2023-02-27T23:00:17;0.40;99.90
66610;DHT22;53468;48.276;14.416;2023-02-27T23:05:21;0.40;99.90
66610;DHT22;53468;48.276;14.416;2023-02-27T23:10:23;0.30;99.90
66610;DHT22;53468;48.276;14.416;2023-02-27T23:15:25;0.30;99.90
66610;DHT22;53468;48.276;14.416;2023-02-27T23:20:29;0.20;99.90
66610;DHT22;53468;48.276;14.416;2023-02-27T23:25:32;0.10;99.90
66610;DHT22;53468;48.276;14.416;2023-02-27T23:30:34;0.10;99.90
66610;DHT22;53468;48.276;14.416;2023-02-27T23:35:38;0.00;99.90
66610;DHT22;53468;48.276;14.416;2023-02-27T23:40:40;0.00;99.90
66610;DHT22;53468;48.276;14.416;2023-02-27T23:45:42;0.00;99.90
66610;DHT22;53468;48.276;14.416;2023-02-27T23:50:47;-0.10;99.90
66610;DHT22;53468;48.276;14.416;2023-02-27T23:55:49;-0.10;99.90
